Time;durP1;ratioP1;P1;durP2;ratioP2;P2;SDS_P1;SDS_P2;PMS_P1;PMS_P2;Temp;Humidity;BMP_temperature;BMP_pressure;BME280_temperature;BME280_humidity;BME280_pressure;Samples;Min_cycle;Max_cycle;Signal;HPM_P1;HPM_P2
2022/11/04 00:04:19;;;;;;;15.77;9.53;;;6.30;99.90;;;;;;10356662;28;20200;-82
2022/11/04 00:09:40;;;;;;;23.40;9.10;;;6.30;99.90;;;;;;10324502;28;20460;-82
2022/11/04 00:17:18;;;;;;;17.37;9.67;;;6.30;99.90;;;;;;10357639;28;20255;-81
2022/11/04 00:37:42;;;;;;;17.70;9.23;;;6.50;99.90;;;;;;10331300;28;20247;-83
2022/11/04 00:43:03;;;;;;;18.53;9.33;;;6.60;99.90;;;;;;10403954;28;20212;-82
2022/11/04 00:48:25;;;;;;;16.87;8.70;;;6.60;99.90;;;;;;10354566;28;20224;-82
2022/11/04 00:53:46;;;;;;;25.37;9.53;;;6.70;99.90;;;;;;10382449;28;20197;-82
2022/11/04 00:59:07;;;;;;;27.37;10.70;;;6.70;99.90;;;;;;10355580;28;20193;-82
2022/11/04 01:04:30;;;;;;;24.20;9.83;;;6.70;99.90;;;;;;10382444;28;20203;-82
2022/11/04 01:09:51;;;;;;;19.50;9.27;;;6.70;99.90;;;;;;10343231;28;20308;-79
2022/11/04 01:15:12;;;;;;;20.87;9.17;;;6.70;99.90;;;;;;10355211;28;20598;-82
2022/11/04 01:20:33;;;;;;;19.50;8.97;;;6.60;99.90;;;;;;10370260;28;20235;-81
2022/11/04 01:25:54;;;;;;;16.43;8.93;;;6.70;99.90;;;;;;10350032;28;20232;-82
2022/11/04 01:31:20;;;;;;;16.67;8.57;;;6.70;99.90;;;;;;10369946;28;20558;-81
2022/11/04 01:36:41;;;;;;;17.90;8.03;;;6.70;99.90;;;;;;10353669;28;20446;-81
2022/11/04 01:42:02;;;;;;;12.00;7.67;;;6.80;99.90;;;;;;10394885;28;20191;-82
2022/11/04 01:47:31;;;;;;;14.87;9.10;;;6.80;99.90;;;;;;10334660;28;20225;-83
2022/11/04 01:52:55;;;;;;;19.40;9.60;;;6.90;99.90;;;;;;10321012;28;20507;-82
2022/11/04 01:58:19;;;;;;;17.60;8.30;;;6.90;99.90;;;;;;10320707;28;20209;-82
2022/11/04 02:03:52;;;;;;;18.13;8.80;;;6.90;99.90;;;;;;10341925;28;20200;-82
2022/11/04 02:09:14;;;;;;;20.07;8.60;;;6.90;99.90;;;;;;10364729;28;20559;-82
2022/11/04 02:14:36;;;;;;;21.30;8.63;;;7.00;99.90;;;;;;10362101;28;20213;-82
2022/11/04 02:20:18;;;;;;;18.73;8.13;;;7.00;99.90;;;;;;10359945;28;20194;-82
2022/11/04 02:26:09;;;;;;;18.20;8.37;;;7.00;99.90;;;;;;10349421;28;20226;-83
2022/11/04 02:31:44;;;;;;;20.53;8.37;;;7.10;99.90;;;;;;10364341;28;20205;-82
2022/11/04 02:37:11;;;;;;;16.80;8.23;;;7.10;99.90;;;;;;10376828;28;20204;-80
2022/11/04 02:42:49;;;;;;;17.83;8.17;;;7.10;99.90;;;;;;10340476;28;20252;-81
2022/11/04 02:48:48;;;;;;;18.53;8.53;;;7.10;99.90;;;;;;10359230;28;20594;-80
2022/11/04 02:54:32;;;;;;;20.77;8.43;;;7.20;99.90;;;;;;10372437;28;20193;-80
2022/11/04 03:00:08;;;;;;;16.83;8.33;;;7.20;99.90;;;;;;10358303;28;20192;-82
2022/11/04 03:05:33;;;;;;;16.10;7.60;;;7.20;99.90;;;;;;10353826;28;20260;-83
2022/11/04 03:11:01;;;;;;;15.10;7.20;;;7.20;99.90;;;;;;10317662;28;20303;-83
2022/11/04 03:16:45;;;;;;;22.10;9.27;;;7.20;99.90;;;;;;10382236;28;20229;-82
2022/11/04 03:22:11;;;;;;;19.50;8.47;;;7.30;99.90;;;;;;10355676;28;20510;-82
2022/11/04 03:27:52;;;;;;;15.30;8.40;;;7.20;99.90;;;;;;10358086;28;20227;-82
2022/11/04 03:33:20;;;;;;;21.17;8.33;;;7.30;99.90;;;;;;10358173;28;20198;-82
2022/11/04 03:38:42;;;;;;;16.40;8.60;;;7.30;99.90;;;;;;10392390;28;20197;-82
2022/11/04 03:44:03;;;;;;;15.87;8.07;;;7.30;99.90;;;;;;10395193;28;20395;-82
2022/11/04 03:49:26;;;;;;;17.10;8.47;;;7.30;99.90;;;;;;10389267;28;20228;-81
2022/11/04 03:54:47;;;;;;;17.43;8.90;;;7.30;99.90;;;;;;10327515;28;20193;-82
2022/11/04 04:00:10;;;;;;;18.57;8.97;;;7.30;99.90;;;;;;10302117;28;20505;-81
2022/11/04 04:05:40;;;;;;;20.40;9.73;;;7.40;99.90;;;;;;10384715;28;20591;-79
2022/11/04 04:11:08;;;;;;;14.30;8.70;;;7.30;99.90;;;;;;10355451;28;20241;-82
2022/11/04 04:16:33;;;;;;;19.27;8.97;;;7.30;99.90;;;;;;10388185;28;20221;-82
2022/11/04 04:22:21;;;;;;;17.90;8.20;;;7.30;99.90;;;;;;10379311;28;20201;-83
2022/11/04 04:27:44;;;;;;;15.10;8.23;;;7.30;99.90;;;;;;10375318;28;20552;-81
2022/11/04 04:33:09;;;;;;;22.63;9.43;;;7.30;99.90;;;;;;10355051;28;20206;-81
2022/11/04 04:50:18;;;;;;;23.30;9.73;;;7.50;99.90;;;;;;10355637;28;20274;-82
2022/11/04 04:55:39;;;;;;;16.00;9.00;;;7.40;99.90;;;;;;10354842;28;20234;-83
2022/11/04 05:01:00;;;;;;;17.80;7.77;;;7.40;99.90;;;;;;10370752;28;20440;-82
2022/11/04 05:06:21;;;;;;;15.40;8.20;;;7.40;99.90;;;;;;10370623;28;20237;-83
2022/11/04 05:11:42;;;;;;;14.70;8.10;;;7.40;99.90;;;;;;10342507;28;20253;-83
2022/11/04 05:17:04;;;;;;;17.63;8.20;;;7.40;99.90;;;;;;10323257;28;20187;-82
2022/11/04 05:22:25;;;;;;;20.33;8.97;;;7.40;99.90;;;;;;10343329;28;20202;-83
2022/11/04 05:27:46;;;;;;;20.20;9.40;;;7.30;99.90;;;;;;10383546;28;20561;-83
2022/11/04 05:33:07;;;;;;;22.87;11.03;;;7.30;99.90;;;;;;10362917;28;20189;-80
2022/11/04 05:38:28;;;;;;;21.03;9.37;;;7.20;99.90;;;;;;10368815;28;20227;-82
2022/11/04 05:43:52;;;;;;;18.70;9.27;;;7.20;99.90;;;;;;10421060;28;20228;-83
2022/11/04 05:49:14;;;;;;;20.83;9.33;;;7.20;99.90;;;;;;10347179;28;20224;-83
2022/11/04 05:54:38;;;;;;;21.07;9.70;;;7.20;99.90;;;;;;10394352;28;20388;-82
2022/11/04 05:59:59;;;;;;;22.43;9.27;;;7.20;99.90;;;;;;10361032;28;20206;-83
2022/11/04 06:05:20;;;;;;;25.90;11.43;;;7.20;99.90;;;;;;10360393;28;20560;-83
2022/11/04 06:10:42;;;;;;;20.33;10.20;;;7.20;99.90;;;;;;10365214;28;20283;-83
2022/11/04 06:16:03;;;;;;;22.17;12.43;;;7.20;99.90;;;;;;10347857;28;20359;-85
2022/11/04 06:21:32;;;;;;;24.90;11.30;;;7.20;99.90;;;;;;10365644;28;20218;-84
2022/11/04 06:26:54;;;;;;;19.43;10.90;;;7.20;99.90;;;;;;10373545;28;20244;-84
2022/11/04 06:32:17;;;;;;;20.87;10.13;;;7.30;99.90;;;;;;10360717;28;20205;-82
2022/11/04 06:37:38;;;;;;;21.60;10.80;;;7.40;99.90;;;;;;10373071;28;20500;-82
2022/11/04 06:42:59;;;;;;;20.33;9.47;;;7.50;99.90;;;;;;10392559;28;20200;-83
2022/11/04 06:48:20;;;;;;;15.67;9.23;;;7.60;99.90;;;;;;10357801;28;20229;-84
2022/11/04 06:53:42;;;;;;;24.00;9.90;;;7.70;99.90;;;;;;10319354;28;20198;-84
2022/11/04 06:59:04;;;;;;;21.90;10.40;;;7.80;99.90;;;;;;10319340;28;20355;-83
2022/11/04 07:04:25;;;;;;;19.30;9.53;;;7.80;99.90;;;;;;10379296;28;20207;-83
2022/11/04 07:09:46;;;;;;;25.77;12.50;;;7.90;99.90;;;;;;10391896;28;20241;-82
2022/11/04 07:15:07;;;;;;;21.07;9.67;;;8.00;99.90;;;;;;10384669;28;20201;-84
2022/11/04 07:20:28;;;;;;;19.03;10.07;;;8.10;99.90;;;;;;10372918;28;20280;-83
2022/11/04 07:25:49;;;;;;;20.13;11.13;;;8.40;99.90;;;;;;10358605;28;20210;-85
2022/11/04 07:31:12;;;;;;;21.50;11.03;;;8.60;99.90;;;;;;10340183;28;20261;-84
2022/11/04 07:36:36;;;;;;;23.50;10.63;;;8.80;99.90;;;;;;10321886;28;20191;-82
2022/11/04 07:41:58;;;;;;;21.50;8.80;;;9.10;99.90;;;;;;10379287;28;20280;-82
2022/11/04 07:47:19;;;;;;;19.50;9.63;;;9.40;99.90;;;;;;10330076;28;20223;-84
2022/11/04 07:52:40;;;;;;;21.73;9.90;;;9.50;99.90;;;;;;10330460;28;20200;-84
2022/11/04 07:58:03;;;;;;;13.70;8.40;;;9.50;99.90;;;;;;10316694;28;20216;-84
2022/11/04 08:03:23;;;;;;;13.43;8.10;;;9.80;99.90;;;;;;10355136;28;20253;-85
2022/11/04 08:08:46;;;;;;;17.50;9.47;;;10.20;99.90;;;;;;10357378;28;20233;-84
2022/11/04 08:14:08;;;;;;;17.50;8.37;;;10.50;99.90;;;;;;10355907;28;20194;-84
2022/11/04 08:19:30;;;;;;;16.63;8.83;;;11.10;99.90;;;;;;10376261;28;20242;-84
2022/11/04 08:24:51;;;;;;;17.10;8.80;;;11.30;99.90;;;;;;10374490;28;20202;-84
2022/11/04 08:30:12;;;;;;;18.20;10.27;;;11.50;99.90;;;;;;10390375;28;20237;-82
2022/11/04 08:35:35;;;;;;;19.60;9.90;;;11.40;99.90;;;;;;10392725;28;20266;-89
2022/11/04 08:41:02;;;;;;;18.53;10.47;;;11.80;99.90;;;;;;10391348;28;20203;-82
2022/11/04 08:46:23;;;;;;;18.50;8.97;;;11.70;99.90;;;;;;10390058;28;20222;-83
2022/11/04 08:51:48;;;;;;;18.43;9.97;;;11.40;99.90;;;;;;10379510;28;20401;-79
2022/11/04 08:57:09;;;;;;;18.50;9.73;;;11.20;99.90;;;;;;10351942;28;20204;-82
2022/11/04 09:02:30;;;;;;;33.00;10.60;;;10.90;99.90;;;;;;10381362;28;20214;-87
2022/11/04 09:07:52;;;;;;;20.97;10.63;;;10.70;99.90;;;;;;10364039;28;20226;-88
2022/11/04 09:13:15;;;;;;;21.03;10.43;;;10.70;99.90;;;;;;10385713;28;20205;-85
2022/11/04 09:18:36;;;;;;;20.97;11.23;;;10.80;99.90;;;;;;10340953;28;20216;-87
2022/11/04 09:23:58;;;;;;;17.43;9.97;;;10.60;99.90;;;;;;10387338;28;20207;-87
2022/11/04 09:29:19;;;;;;;20.10;10.47;;;10.50;99.90;;;;;;10390616;28;20231;-86
2022/11/04 09:34:40;;;;;;;18.03;9.43;;;10.60;99.90;;;;;;10390237;28;20391;-84
2022/11/04 09:40:01;;;;;;;17.70;10.67;;;10.70;99.90;;;;;;10365582;28;20200;-84
2022/11/04 09:45:32;;;;;;;16.83;10.53;;;10.80;99.90;;;;;;10354509;28;20279;-85
2022/11/04 09:50:57;;;;;;;20.57;10.60;;;10.80;99.90;;;;;;10349917;28;20205;-85
2022/11/04 09:56:27;;;;;;;16.17;9.70;;;10.80;99.90;;;;;;10331216;28;20269;-82
2022/11/04 10:02:03;;;;;;;18.53;9.63;;;10.80;99.90;;;;;;10368745;28;20188;-82
2022/11/04 10:07:55;;;;;;;19.10;10.77;;;10.70;99.90;;;;;;10378285;28;20527;-82
2022/11/04 10:13:23;;;;;;;22.70;10.07;;;10.70;99.90;;;;;;10367774;28;20208;-91
2022/11/04 10:19:04;;;;;;;19.40;10.67;;;10.50;99.90;;;;;;10358558;28;20446;-90
2022/11/04 10:24:48;;;;;;;22.87;12.37;;;10.40;99.90;;;;;;10404416;28;20214;-92
2022/11/04 10:30:22;;;;;;;28.60;13.10;;;10.40;99.90;;;;;;10423460;28;20252;-86
2022/11/04 10:35:57;;;;;;;27.40;10.97;;;10.20;99.90;;;;;;10400465;28;20204;-87
2022/11/04 10:41:38;;;;;;;29.30;13.17;;;10.20;99.90;;;;;;10394501;28;20206;-90
2022/11/04 10:47:21;;;;;;;25.73;12.03;;;10.20;99.90;;;;;;10384855;28;20297;-85
2022/11/04 10:52:42;;;;;;;26.40;13.03;;;10.20;99.90;;;;;;10395078;28;20193;-84
2022/11/04 10:58:17;;;;;;;29.33;13.93;;;10.20;99.90;;;;;;10396248;28;20204;-83
2022/11/04 11:03:38;;;;;;;22.10;10.97;;;10.20;99.90;;;;;;10382149;28;20204;-80
2022/11/04 11:09:28;;;;;;;26.77;11.50;;;10.10;99.90;;;;;;10371356;28;20247;-88
2022/11/04 11:14:49;;;;;;;18.63;10.00;;;10.10;99.90;;;;;;10380109;28;20199;-83
2022/11/04 11:20:15;;;;;;;19.40;10.90;;;10.20;99.90;;;;;;10421096;28;20509;-84
2022/11/04 11:25:44;;;;;;;20.63;10.20;;;10.30;99.90;;;;;;10349257;28;20255;-85
2022/11/04 11:31:15;;;;;;;19.20;10.30;;;10.30;99.90;;;;;;10410090;28;20544;-82
2022/11/04 11:36:37;;;;;;;16.13;8.83;;;10.40;99.90;;;;;;10394242;28;20216;-90
2022/11/04 11:42:03;;;;;;;18.93;9.77;;;11.40;99.90;;;;;;10369327;28;20220;-85
2022/11/04 11:47:24;;;;;;;18.43;9.47;;;12.30;99.90;;;;;;10352965;28;20424;-89
2022/11/04 11:52:49;;;;;;;17.90;9.90;;;12.50;99.90;;;;;;10383520;28;20221;-86
2022/11/04 11:58:24;;;;;;;17.60;10.17;;;12.00;99.90;;;;;;10378400;28;20205;-91
2022/11/04 12:04:06;;;;;;;19.80;10.73;;;11.80;99.90;;;;;;10403738;28;20205;-86
2022/11/04 12:10:12;;;;;;;17.30;10.10;;;11.60;99.90;;;;;;10386740;28;20269;-79
2022/11/04 12:15:53;;;;;;;17.53;10.23;;;11.60;99.90;;;;;;10342677;28;20196;-91
2022/11/04 12:21:32;;;;;;;22.43;10.77;;;11.70;99.90;;;;;;10359190;28;20240;-87
2022/11/04 12:27:12;;;;;;;20.23;12.13;;;11.90;99.90;;;;;;10315042;28;20310;-83
2022/11/04 12:32:36;;;;;;;21.20;11.53;;;11.60;99.90;;;;;;10295941;28;20202;-83
2022/11/04 12:38:05;;;;;;;16.43;10.97;;;11.40;99.90;;;;;;10323579;28;20203;-86
2022/11/04 12:43:33;;;;;;;19.10;10.97;;;11.10;99.90;;;;;;10323615;28;20239;-84
2022/11/04 12:49:20;;;;;;;14.73;9.27;;;11.30;99.90;;;;;;10282657;28;20308;-86
2022/11/04 12:55:07;;;;;;;18.83;9.83;;;11.20;99.90;;;;;;10305257;28;20199;-86
2022/11/04 13:00:30;;;;;;;19.93;10.17;;;11.10;99.90;;;;;;10375190;28;20240;-85
2022/11/04 13:06:20;;;;;;;16.27;10.10;;;11.00;99.90;;;;;;10298694;28;20215;-85
2022/11/04 13:12:05;;;;;;;25.27;14.03;;;11.00;99.90;;;;;;10355050;28;20227;-86
2022/11/04 13:17:31;;;;;;;17.57;10.37;;;10.90;99.90;;;;;;10336430;28;20201;-83
2022/11/04 13:22:58;;;;;;;29.77;12.57;;;10.90;99.90;;;;;;10333660;28;20214;-79
2022/11/04 13:28:23;;;;;;;103.70;29.07;;;10.80;99.90;;;;;;10362648;28;20247;-79
2022/11/04 13:34:03;;;;;;;28.43;14.97;;;10.80;99.90;;;;;;10365047;28;20199;-81
2022/11/04 13:39:33;;;;;;;24.80;13.87;;;10.70;99.90;;;;;;10327012;28;20219;-81
2022/11/04 13:44:57;;;;;;;33.23;14.83;;;10.70;99.90;;;;;;10356537;28;20207;-85
2022/11/04 13:50:39;;;;;;;21.27;12.50;;;10.60;99.90;;;;;;10332068;28;20235;-82
2022/11/04 13:56:00;;;;;;;17.83;11.17;;;10.40;99.90;;;;;;10362016;28;20504;-86
2022/11/04 14:01:41;;;;;;;22.40;12.23;;;10.30;99.90;;;;;;10354938;28;20198;-85
2022/11/04 14:07:03;;;;;;;24.03;12.60;;;10.20;99.90;;;;;;10319524;28;20299;-78
2022/11/04 14:12:31;;;;;;;22.20;12.73;;;10.10;99.90;;;;;;10362836;28;20263;-83
2022/11/04 14:17:53;;;;;;;25.53;13.97;;;10.00;99.90;;;;;;10363669;28;20230;-84
2022/11/04 14:23:22;;;;;;;22.77;13.20;;;9.90;99.90;;;;;;10356719;28;20394;-82
2022/11/04 14:28:58;;;;;;;23.03;12.77;;;9.90;99.90;;;;;;10341240;28;20257;-82
2022/11/04 14:34:30;;;;;;;27.13;14.60;;;9.90;99.90;;;;;;10330223;28;20201;-86
2022/11/04 14:39:58;;;;;;;26.03;14.13;;;9.80;99.90;;;;;;10313082;28;20207;-86
2022/11/04 14:45:37;;;;;;;23.00;14.10;;;9.80;99.90;;;;;;10346394;28;20436;-85
2022/11/04 14:50:58;;;;;;;26.03;15.83;;;9.70;99.90;;;;;;10348163;28;20224;-83
2022/11/04 14:56:22;;;;;;;29.03;18.07;;;9.60;99.90;;;;;;10354586;28;20202;-85
2022/11/04 15:01:44;;;;;;;28.03;17.07;;;9.60;99.90;;;;;;10334305;28;20200;-84
2022/11/04 15:07:05;;;;;;;27.93;16.70;;;9.60;99.90;;;;;;10301824;28;20219;-86
2022/11/04 15:18:15;;;;;;;31.50;17.70;;;9.50;99.90;;;;;;10365046;28;20205;-92
2022/11/04 15:23:51;;;;;;;23.43;15.10;;;9.50;99.90;;;;;;10323597;28;20211;-86
2022/11/04 15:29:15;;;;;;;27.37;16.17;;;9.40;99.90;;;;;;10349402;28;20228;-85
2022/11/04 15:34:36;;;;;;;25.63;15.20;;;9.30;99.90;;;;;;10345244;28;20201;-82
2022/11/04 15:39:59;;;;;;;30.47;16.47;;;9.40;99.90;;;;;;10338025;28;20432;-84
2022/11/04 15:45:45;;;;;;;29.30;17.90;;;9.40;99.90;;;;;;10348098;28;20193;-85
2022/11/04 15:51:17;;;;;;;27.00;16.23;;;9.40;99.90;;;;;;10337837;28;20520;-85
2022/11/04 15:56:44;;;;;;;25.20;14.87;;;9.30;99.90;;;;;;10339097;28;20211;-87
2022/11/04 16:02:22;;;;;;;27.63;16.20;;;9.30;99.90;;;;;;10328816;28;20278;-85
2022/11/04 16:07:49;;;;;;;33.50;16.53;;;9.30;99.90;;;;;;10341794;28;20235;-86
2022/11/04 16:13:16;;;;;;;31.00;16.83;;;9.30;99.90;;;;;;10355073;28;20205;-86
2022/11/04 16:18:40;;;;;;;30.07;18.60;;;9.30;99.90;;;;;;10355133;28;20521;-85
2022/11/04 16:24:27;;;;;;;39.90;21.07;;;9.30;99.90;;;;;;10316689;28;20195;-85
2022/11/04 16:30:05;;;;;;;32.67;19.03;;;9.30;99.90;;;;;;10326703;28;20475;-84
2022/11/04 16:35:27;;;;;;;36.47;19.57;;;9.30;99.90;;;;;;10338935;28;20195;-83
2022/11/04 16:40:49;;;;;;;32.27;19.17;;;9.30;99.90;;;;;;10342841;28;20220;-84
2022/11/04 16:46:11;;;;;;;35.87;20.60;;;9.30;99.90;;;;;;10342535;28;20196;-84
2022/11/04 16:51:33;;;;;;;37.70;21.27;;;9.30;99.90;;;;;;10342781;28;20312;-84
2022/11/04 16:56:55;;;;;;;38.37;22.37;;;9.40;99.90;;;;;;10343118;28;20200;-85
2022/11/04 17:02:27;;;;;;;35.07;20.57;;;9.40;99.90;;;;;;10346386;28;20199;-84
2022/11/04 17:07:48;;;;;;;45.27;21.17;;;9.40;99.90;;;;;;10291571;28;20551;-85
2022/11/04 17:13:14;;;;;;;35.33;20.20;;;9.40;99.90;;;;;;10357148;28;20286;-85
2022/11/04 17:18:36;;;;;;;40.40;21.50;;;9.30;99.90;;;;;;10350131;28;20278;-85
2022/11/04 17:23:57;;;;;;;41.33;24.57;;;9.40;99.90;;;;;;10320817;28;20210;-85
2022/11/04 17:29:18;;;;;;;49.80;30.40;;;9.40;99.90;;;;;;10363384;28;20532;-85
2022/11/04 17:34:39;;;;;;;54.97;32.20;;;9.40;99.90;;;;;;10363830;28;20197;-85
2022/11/04 17:40:01;;;;;;;60.50;33.60;;;9.50;99.90;;;;;;10362936;28;20218;-85
2022/11/04 17:45:22;;;;;;;43.13;28.13;;;9.40;99.90;;;;;;10349992;28;20210;-85
2022/11/04 17:50:43;;;;;;;51.17;27.37;;;9.40;99.90;;;;;;10363160;28;20220;-85
2022/11/04 17:56:12;;;;;;;40.73;23.57;;;9.50;99.90;;;;;;10363177;28;20199;-85
2022/11/04 18:01:34;;;;;;;53.43;27.80;;;9.50;99.90;;;;;;10323918;28;20207;-85
2022/11/04 18:06:56;;;;;;;46.73;24.77;;;9.50;99.90;;;;;;10334636;28;20199;-85
2022/11/04 18:12:37;;;;;;;46.23;26.87;;;9.50;99.90;;;;;;10334302;28;20244;-84
2022/11/04 18:17:58;;;;;;;42.27;24.40;;;9.40;99.90;;;;;;10361688;28;20205;-85
2022/11/04 18:23:21;;;;;;;43.53;22.80;;;9.40;99.90;;;;;;10321844;28;20201;-85
2022/11/04 18:28:42;;;;;;;33.80;21.03;;;9.40;99.90;;;;;;10306537;28;20234;-84
2022/11/04 18:34:07;;;;;;;37.40;21.30;;;9.40;99.90;;;;;;10320145;28;20243;-85
2022/11/04 18:39:28;;;;;;;39.60;20.27;;;9.40;99.90;;;;;;10304476;28;20201;-85
2022/11/04 18:44:49;;;;;;;35.70;20.00;;;9.30;99.90;;;;;;10335715;28;20315;-85
2022/11/04 18:50:11;;;;;;;38.30;18.70;;;9.30;99.90;;;;;;10365996;28;20228;-84
2022/11/04 18:55:32;;;;;;;31.00;18.43;;;9.30;99.90;;;;;;10392684;28;20277;-85
2022/11/04 19:00:54;;;;;;;30.03;17.60;;;9.30;99.90;;;;;;10345737;28;20206;-85
2022/11/04 19:06:18;;;;;;;38.17;19.37;;;9.30;99.90;;;;;;10305919;28;20198;-85
2022/11/04 19:11:41;;;;;;;30.93;17.23;;;9.40;99.90;;;;;;10340943;28;20319;-85
2022/11/04 19:17:02;;;;;;;31.60;16.13;;;9.40;99.90;;;;;;10323196;28;20193;-84
2022/11/04 19:22:23;;;;;;;29.67;17.27;;;9.40;99.90;;;;;;10365126;28;20197;-85
2022/11/04 19:27:46;;;;;;;30.80;16.07;;;9.40;99.90;;;;;;10333821;28;20590;-85
2022/11/04 19:33:15;;;;;;;34.23;17.23;;;9.40;99.90;;;;;;10305507;28;20197;-85
2022/11/04 19:38:37;;;;;;;30.87;16.83;;;9.40;99.90;;;;;;10321904;28;20349;-85
2022/11/04 19:44:01;;;;;;;28.03;16.70;;;9.40;99.90;;;;;;10343474;28;20195;-85
2022/11/04 19:49:22;;;;;;;35.00;18.03;;;9.40;99.90;;;;;;10343992;28;20238;-85
2022/11/04 19:54:45;;;;;;;28.83;16.10;;;9.40;99.90;;;;;;10346241;28;20196;-85
2022/11/04 20:00:07;;;;;;;35.53;18.13;;;9.40;99.90;;;;;;10333371;28;20498;-84
2022/11/04 20:05:39;;;;;;;39.93;18.00;;;9.40;99.90;;;;;;10371759;28;20196;-85
2022/11/04 20:11:05;;;;;;;32.57;18.10;;;9.40;99.90;;;;;;10360679;28;20234;-85
2022/11/04 20:16:29;;;;;;;31.10;17.00;;;9.40;99.90;;;;;;10308476;28;20201;-85
2022/11/04 20:21:50;;;;;;;24.83;15.20;;;9.30;99.90;;;;;;10307957;28;20223;-85
2022/11/04 20:27:14;;;;;;;23.53;13.90;;;9.40;99.90;;;;;;10329962;28;20277;-85
2022/11/04 20:32:35;;;;;;;33.80;16.83;;;9.40;99.90;;;;;;10321108;28;20220;-86
2022/11/04 20:37:57;;;;;;;26.23;14.13;;;9.40;99.90;;;;;;10334009;28;20199;-86
2022/11/04 20:43:19;;;;;;;28.17;15.47;;;9.40;99.90;;;;;;10321836;28;20192;-85
2022/11/04 20:48:40;;;;;;;24.60;13.23;;;9.40;99.90;;;;;;10323200;28;20231;-86
2022/11/04 20:54:05;;;;;;;27.20;14.10;;;9.30;99.90;;;;;;10320209;28;20200;-85
2022/11/04 20:59:26;;;;;;;19.33;12.27;;;9.30;99.90;;;;;;10294151;28;20199;-85
2022/11/04 21:04:53;;;;;;;20.87;12.77;;;9.30;99.90;;;;;;10342021;28;20198;-84
2022/11/04 21:10:15;;;;;;;27.03;12.90;;;9.30;99.90;;;;;;10345540;28;20258;-86
2022/11/04 21:15:40;;;;;;;21.77;11.80;;;9.30;99.90;;;;;;10334853;28;20203;-85
2022/11/04 21:21:16;;;;;;;19.10;10.50;;;9.30;99.90;;;;;;10346323;28;20200;-84
2022/11/04 21:26:37;;;;;;;21.57;12.50;;;9.30;99.90;;;;;;10340727;28;20202;-84
2022/11/04 21:31:58;;;;;;;22.27;12.97;;;9.30;99.90;;;;;;10328388;28;20234;-84
2022/11/04 21:37:20;;;;;;;20.33;12.47;;;9.20;99.90;;;;;;10354944;28;20490;-84
2022/11/04 21:42:41;;;;;;;23.47;12.23;;;9.20;99.90;;;;;;10305163;28;20199;-83
2022/11/04 21:48:03;;;;;;;27.40;12.63;;;9.20;99.90;;;;;;10302564;28;20224;-83
2022/11/04 21:53:23;;;;;;;19.27;12.27;;;9.20;99.90;;;;;;10300323;28;20211;-84
2022/11/04 21:58:45;;;;;;;24.17;13.53;;;9.20;99.90;;;;;;10335321;28;20195;-84
2022/11/04 22:04:07;;;;;;;20.50;13.50;;;9.20;99.90;;;;;;10333242;28;20200;-84
2022/11/04 22:09:28;;;;;;;22.13;13.27;;;9.20;99.90;;;;;;10353019;28;20536;-84
2022/11/04 22:14:50;;;;;;;19.83;12.60;;;9.20;99.90;;;;;;10341325;28;20203;-85
2022/11/04 22:20:11;;;;;;;18.27;12.00;;;9.20;99.90;;;;;;10347268;28;20269;-84
2022/11/04 22:25:32;;;;;;;23.90;13.10;;;9.20;99.90;;;;;;10333730;28;20235;-84
2022/11/04 22:30:53;;;;;;;20.53;13.43;;;9.20;99.90;;;;;;10347730;28;20564;-83
2022/11/04 22:36:14;;;;;;;23.00;12.63;;;9.30;99.90;;;;;;10310492;28;20448;-84
2022/11/04 22:41:36;;;;;;;19.50;11.60;;;9.20;99.90;;;;;;10361759;28;20203;-85
2022/11/04 22:46:58;;;;;;;18.57;12.10;;;9.20;99.90;;;;;;10359883;28;20195;-84
2022/11/04 22:52:19;;;;;;;20.17;10.83;;;9.20;99.90;;;;;;10359381;28;20238;-84
2022/11/04 22:57:40;;;;;;;18.23;11.03;;;9.20;99.90;;;;;;10345816;28;20198;-84
2022/11/04 23:03:01;;;;;;;17.60;10.97;;;9.20;99.90;;;;;;10335667;28;20207;-84
2022/11/04 23:08:24;;;;;;;17.53;11.60;;;9.20;99.90;;;;;;10363856;28;20235;-84
2022/11/04 23:19:38;;;;;;;18.37;12.20;;;9.10;99.90;;;;;;10344726;28;20276;-86
2022/11/04 23:25:05;;;;;;;21.87;12.10;;;9.00;99.90;;;;;;10331830;28;20200;-85
2022/11/04 23:30:28;;;;;;;26.33;13.83;;;9.00;99.90;;;;;;10345567;28;20202;-84
